PDA6038 UKBB-LIEO
Flight info
| Callsign | PDA6038 |
|---|---|
| Flight time | 2h 42m |
| Altitude | 36000 |
| Route | VESEL M141 LANKU DCT EROMO/N0444F360 DCT VERIG DCT KEROP DCT LURID DCT TORPO DCT INTUD DCT BATOX |
| Aircraft | A321/M-SDE3FGHIRWY/LB1 |
Departure
| Time | 2026-04-27 15:14 |
|---|---|
| Airport | Boryspil International Airport (UKBB) |
Arrival
| Time | 2026-04-27 17:56 |
|---|---|
| Airport | Olbia Costa Smeralda Airport (LIEO) |
| Time | Latitude | Longitude | Altitude | Speed | Heading |
|---|---|---|---|---|---|
| 2026-04-27 14:48 | 50.33559 | 30.90002 | 414 ft | 0 kts | 2° |
| 2026-04-27 15:08 | 50.33564 | 30.90003 | 414 ft | 1 kts | 2° |
| 2026-04-27 15:09 | 50.33573 | 30.90004 | 414 ft | 1 kts | 4° |
| 2026-04-27 15:09 | 50.33584 | 30.90008 | 414 ft | 1 kts | 22° |
| 2026-04-27 15:09 | 50.33594 | 30.90023 | 414 ft | 2 kts | 62° |
| 2026-04-27 15:09 | 50.33598 | 30.90060 | 414 ft | 4 kts | 88° |
| 2026-04-27 15:10 | 50.33588 | 30.90111 | 414 ft | 5 kts | 130° |
| 2026-04-27 15:10 | 50.33548 | 30.90135 | 414 ft | 7 kts | 174° |
| 2026-04-27 15:10 | 50.33495 | 30.90135 | 414 ft | 8 kts | 182° |
| 2026-04-27 15:10 | 50.33437 | 30.90130 | 414 ft | 8 kts | 183° |
| 2026-04-27 15:11 | 50.33372 | 30.90130 | 414 ft | 9 kts | 167° |
| 2026-04-27 15:11 | 50.33323 | 30.90204 | 414 ft | 10 kts | 106° |
| 2026-04-27 15:11 | 50.33321 | 30.90229 | 414 ft | 0 kts | 94° |
| 2026-04-27 15:11 | 50.33320 | 30.90248 | 414 ft | 3 kts | 93° |
| 2026-04-27 15:12 | 50.33319 | 30.90295 | 414 ft | 5 kts | 92° |
| 2026-04-27 15:12 | 50.33329 | 30.90368 | 414 ft | 7 kts | 61° |
| 2026-04-27 15:12 | 50.33372 | 30.90432 | 414 ft | 9 kts | 30° |
| 2026-04-27 15:12 | 50.33438 | 30.90456 | 414 ft | 10 kts | 2° |
| 2026-04-27 15:13 | 50.33461 | 30.90458 | 414 ft | 3 kts | 2° |
| 2026-04-27 15:13 | 50.33742 | 30.90473 | 412 ft | 84 kts | 1° |
| 2026-04-27 15:13 | 50.34604 | 30.90539 | 408 ft | 160 kts | 3° |
| 2026-04-27 15:13 | 50.35841 | 30.90624 | 827 ft | 189 kts | 358° |
| 2026-04-27 15:14 | 50.37190 | 30.90631 | 1584 ft | 205 kts | 354° |
| 2026-04-27 15:14 | 50.38569 | 30.90649 | 2788 ft | 199 kts | 358° |
| 2026-04-27 15:14 | 50.39949 | 30.90874 | 3452 ft | 206 kts | 359° |
| 2026-04-27 15:14 | 50.41422 | 30.91088 | 3883 ft | 222 kts | 358° |
| 2026-04-27 15:15 | 50.42996 | 30.90949 | 4288 ft | 231 kts | 335° |
| 2026-04-27 15:15 | 50.44210 | 30.89390 | 4913 ft | 231 kts | 301° |
| 2026-04-27 15:15 | 50.44701 | 30.87052 | 5727 ft | 235 kts | 277° |
| 2026-04-27 15:15 | 50.44418 | 30.84524 | 6464 ft | 248 kts | 252° |
| 2026-04-27 15:16 | 50.43608 | 30.82135 | 7210 ft | 252 kts | 249° |
| 2026-04-27 15:16 | 50.42799 | 30.79742 | 7928 ft | 254 kts | 250° |
| 2026-04-27 15:16 | 50.41992 | 30.77319 | 8653 ft | 255 kts | 250° |
| 2026-04-27 15:16 | 50.41176 | 30.74864 | 9356 ft | 257 kts | 249° |
| 2026-04-27 15:17 | 50.40347 | 30.72369 | 10041 ft | 260 kts | 250° |
| 2026-04-27 15:17 | 50.39520 | 30.69874 | 10633 ft | 266 kts | 250° |
| 2026-04-27 15:17 | 50.38639 | 30.67212 | 10950 ft | 282 kts | 250° |
| 2026-04-27 15:17 | 50.37727 | 30.64456 | 11307 ft | 295 kts | 250° |
| 2026-04-27 15:18 | 50.36773 | 30.61606 | 11917 ft | 299 kts | 250° |
| 2026-04-27 15:18 | 50.35798 | 30.58703 | 12562 ft | 302 kts | 250° |
| 2026-04-27 15:18 | 50.34825 | 30.55805 | 13169 ft | 304 kts | 250° |
| 2026-04-27 15:18 | 50.33848 | 30.52894 | 13752 ft | 307 kts | 251° |
| 2026-04-27 15:19 | 50.32849 | 30.49918 | 14344 ft | 310 kts | 251° |
| 2026-04-27 15:19 | 50.31843 | 30.46924 | 14938 ft | 311 kts | 251° |
| 2026-04-27 15:19 | 50.30838 | 30.43938 | 15524 ft | 313 kts | 251° |
| 2026-04-27 15:19 | 50.29839 | 30.40972 | 16066 ft | 315 kts | 252° |
| 2026-04-27 15:20 | 50.28832 | 30.37976 | 16588 ft | 318 kts | 252° |
| 2026-04-27 15:20 | 50.27793 | 30.34897 | 17121 ft | 320 kts | 251° |
| 2026-04-27 15:20 | 50.26768 | 30.31860 | 17666 ft | 321 kts | 251° |
| 2026-04-27 15:20 | 50.25730 | 30.28789 | 18172 ft | 324 kts | 251° |
| 2026-04-27 15:21 | 50.24677 | 30.25669 | 18627 ft | 327 kts | 251° |
| 2026-04-27 15:21 | 50.23608 | 30.22509 | 19009 ft | 333 kts | 251° |
| 2026-04-27 15:21 | 50.22559 | 30.19414 | 19461 ft | 336 kts | 251° |
| 2026-04-27 15:21 | 50.21489 | 30.16266 | 19930 ft | 338 kts | 251° |
| 2026-04-27 15:22 | 50.20429 | 30.13147 | 20364 ft | 341 kts | 251° |
| 2026-04-27 15:22 | 50.19345 | 30.09964 | 20827 ft | 343 kts | 251° |
| 2026-04-27 15:22 | 50.18240 | 30.06722 | 21268 ft | 346 kts | 251° |
| 2026-04-27 15:22 | 50.17107 | 30.03405 | 21712 ft | 348 kts | 251° |
| 2026-04-27 15:23 | 50.15973 | 30.00093 | 22153 ft | 350 kts | 251° |
| 2026-04-27 15:23 | 50.14831 | 29.96754 | 22565 ft | 353 kts | 251° |
| 2026-04-27 15:23 | 50.13712 | 29.93486 | 22982 ft | 355 kts | 251° |
| 2026-04-27 15:23 | 50.12591 | 29.90220 | 23363 ft | 358 kts | 251° |
| 2026-04-27 15:24 | 50.11446 | 29.86887 | 23749 ft | 360 kts | 251° |
| 2026-04-27 15:24 | 50.10310 | 29.83584 | 24161 ft | 362 kts | 251° |
| 2026-04-27 15:24 | 50.09136 | 29.80178 | 24545 ft | 364 kts | 251° |
| 2026-04-27 15:24 | 50.07967 | 29.76788 | 24933 ft | 366 kts | 250° |
| 2026-04-27 15:25 | 50.06754 | 29.73277 | 25295 ft | 369 kts | 250° |
| 2026-04-27 15:25 | 50.05535 | 29.69753 | 25657 ft | 371 kts | 251° |
| 2026-04-27 15:25 | 50.04307 | 29.66211 | 26018 ft | 374 kts | 250° |
| 2026-04-27 15:25 | 50.03072 | 29.62649 | 26360 ft | 376 kts | 250° |
| 2026-04-27 15:26 | 50.01839 | 29.59098 | 26703 ft | 379 kts | 250° |
| 2026-04-27 15:26 | 50.00579 | 29.55478 | 27044 ft | 381 kts | 250° |
| 2026-04-27 15:26 | 49.99321 | 29.51868 | 27361 ft | 383 kts | 250° |
| 2026-04-27 15:26 | 49.98061 | 29.48255 | 27660 ft | 386 kts | 250° |
| 2026-04-27 15:27 | 49.96772 | 29.44565 | 27976 ft | 388 kts | 249° |
| 2026-04-27 15:27 | 49.95495 | 29.40914 | 28317 ft | 389 kts | 249° |
| 2026-04-27 15:27 | 49.94208 | 29.37245 | 28619 ft | 391 kts | 249° |
| 2026-04-27 15:27 | 49.92905 | 29.33536 | 28884 ft | 394 kts | 248° |
| 2026-04-27 15:28 | 49.91588 | 29.29785 | 29179 ft | 396 kts | 248° |
| 2026-04-27 15:28 | 49.90271 | 29.26044 | 29476 ft | 398 kts | 248° |
| 2026-04-27 15:28 | 49.88950 | 29.22296 | 29743 ft | 400 kts | 248° |
| 2026-04-27 15:28 | 49.87610 | 29.18499 | 30011 ft | 402 kts | 248° |
| 2026-04-27 15:29 | 49.86261 | 29.14685 | 30266 ft | 404 kts | 248° |
| 2026-04-27 15:29 | 49.84908 | 29.10861 | 30515 ft | 406 kts | 248° |
| 2026-04-27 15:29 | 49.83566 | 29.07073 | 30759 ft | 408 kts | 248° |
| 2026-04-27 15:29 | 49.82209 | 29.03255 | 31056 ft | 408 kts | 248° |
| 2026-04-27 15:30 | 49.80835 | 28.99394 | 31369 ft | 407 kts | 248° |
| 2026-04-27 15:30 | 49.79489 | 28.95615 | 31643 ft | 408 kts | 248° |
| 2026-04-27 15:30 | 49.78124 | 28.91790 | 31931 ft | 407 kts | 248° |
| 2026-04-27 15:30 | 49.76753 | 28.87955 | 32235 ft | 407 kts | 248° |
| 2026-04-27 15:31 | 49.75391 | 28.84150 | 32518 ft | 406 kts | 248° |
| 2026-04-27 15:31 | 49.74048 | 28.80402 | 32782 ft | 406 kts | 248° |
| 2026-04-27 15:31 | 49.72676 | 28.76572 | 33036 ft | 406 kts | 248° |
| 2026-04-27 15:31 | 49.71315 | 28.72785 | 33293 ft | 406 kts | 247° |
| 2026-04-27 15:32 | 49.69951 | 28.68992 | 33547 ft | 405 kts | 247° |
| 2026-04-27 15:32 | 49.68592 | 28.65219 | 33811 ft | 405 kts | 247° |
| 2026-04-27 15:32 | 49.67227 | 28.61436 | 34043 ft | 405 kts | 247° |
| 2026-04-27 15:32 | 49.65859 | 28.57651 | 34267 ft | 405 kts | 247° |
| 2026-04-27 15:33 | 49.64479 | 28.53837 | 34469 ft | 405 kts | 247° |
| 2026-04-27 15:33 | 49.63119 | 28.50084 | 34634 ft | 407 kts | 247° |
| 2026-04-27 15:33 | 49.61732 | 28.46262 | 34772 ft | 408 kts | 247° |
| 2026-04-27 15:33 | 49.60352 | 28.42465 | 34909 ft | 409 kts | 247° |
| 2026-04-27 15:34 | 49.58964 | 28.38656 | 35041 ft | 410 kts | 247° |
| 2026-04-27 15:34 | 49.57564 | 28.34815 | 35168 ft | 411 kts | 246° |
| 2026-04-27 15:34 | 49.56169 | 28.30996 | 35299 ft | 412 kts | 246° |
| 2026-04-27 15:34 | 49.54769 | 28.27169 | 35415 ft | 413 kts | 246° |
| 2026-04-27 15:35 | 49.53361 | 28.23323 | 35532 ft | 414 kts | 246° |
| 2026-04-27 15:35 | 49.51937 | 28.19442 | 35651 ft | 415 kts | 246° |
| 2026-04-27 15:35 | 49.50519 | 28.15582 | 35765 ft | 415 kts | 246° |
| 2026-04-27 15:35 | 49.49110 | 28.11754 | 35856 ft | 416 kts | 246° |
| 2026-04-27 15:36 | 49.47687 | 28.07894 | 35959 ft | 417 kts | 246° |
| 2026-04-27 15:36 | 49.46265 | 28.04041 | 36058 ft | 418 kts | 245° |
| 2026-04-27 15:36 | 49.43395 | 27.96283 | 36087 ft | 420 kts | 245° |
| 2026-04-27 15:37 | 49.40739 | 27.88361 | 36095 ft | 416 kts | 251° |
| 2026-04-27 15:37 | 49.38569 | 27.80205 | 36094 ft | 417 kts | 251° |
| 2026-04-27 15:38 | 49.35962 | 27.72283 | 36099 ft | 419 kts | 247° |
| 2026-04-27 15:38 | 49.33232 | 27.64451 | 36097 ft | 419 kts | 247° |
| 2026-04-27 15:39 | 49.30517 | 27.56667 | 36098 ft | 419 kts | 247° |
| 2026-04-27 15:39 | 49.27788 | 27.48854 | 36097 ft | 419 kts | 247° |
| 2026-04-27 15:40 | 49.25065 | 27.41068 | 36098 ft | 419 kts | 247° |
| 2026-04-27 15:40 | 49.22327 | 27.33261 | 36100 ft | 419 kts | 246° |
| 2026-04-27 15:41 | 49.19579 | 27.25447 | 36101 ft | 420 kts | 246° |
| 2026-04-27 15:41 | 49.16812 | 27.17606 | 36103 ft | 419 kts | 246° |
| 2026-04-27 15:42 | 49.14058 | 27.09825 | 36106 ft | 418 kts | 246° |
| 2026-04-27 15:42 | 49.11295 | 27.02038 | 36098 ft | 419 kts | 246° |
| 2026-04-27 15:43 | 49.08534 | 26.94279 | 36100 ft | 420 kts | 246° |
| 2026-04-27 15:43 | 49.05757 | 26.86499 | 36109 ft | 420 kts | 246° |
| 2026-04-27 15:44 | 49.02961 | 26.78693 | 36112 ft | 419 kts | 246° |
| 2026-04-27 15:44 | 49.00191 | 26.70985 | 36110 ft | 419 kts | 246° |
| 2026-04-27 15:45 | 48.97399 | 26.63234 | 36113 ft | 418 kts | 246° |
| 2026-04-27 15:45 | 48.94601 | 26.55489 | 36111 ft | 419 kts | 246° |
| 2026-04-27 15:46 | 48.91808 | 26.47780 | 36123 ft | 419 kts | 246° |
| 2026-04-27 15:46 | 48.89010 | 26.40082 | 36120 ft | 419 kts | 246° |
| 2026-04-27 15:47 | 48.86213 | 26.32407 | 36127 ft | 419 kts | 246° |
| 2026-04-27 15:47 | 48.83445 | 26.24839 | 36123 ft | 419 kts | 246° |
| 2026-04-27 15:48 | 48.80654 | 26.17224 | 36127 ft | 419 kts | 246° |
| 2026-04-27 15:49 | 48.76401 | 26.05668 | 36130 ft | 420 kts | 246° |
| 2026-04-27 15:49 | 48.73579 | 25.98027 | 36132 ft | 419 kts | 246° |
| 2026-04-27 15:50 | 48.70731 | 25.90339 | 36130 ft | 419 kts | 246° |
| 2026-04-27 15:50 | 48.67906 | 25.82736 | 36139 ft | 419 kts | 246° |
| 2026-04-27 15:51 | 48.65046 | 25.75060 | 36141 ft | 419 kts | 246° |
| 2026-04-27 15:51 | 48.62199 | 25.67439 | 36136 ft | 420 kts | 246° |
| 2026-04-27 15:52 | 48.59330 | 25.59784 | 36134 ft | 420 kts | 245° |
| 2026-04-27 15:52 | 48.56480 | 25.52201 | 36133 ft | 420 kts | 245° |
| 2026-04-27 15:53 | 48.53590 | 25.44536 | 36134 ft | 420 kts | 245° |
| 2026-04-27 15:53 | 48.50712 | 25.36923 | 36129 ft | 420 kts | 245° |
| 2026-04-27 15:54 | 48.47845 | 25.29362 | 36126 ft | 420 kts | 245° |
| 2026-04-27 15:54 | 48.44969 | 25.21799 | 36128 ft | 420 kts | 245° |
| 2026-04-27 15:55 | 48.42067 | 25.14187 | 36125 ft | 419 kts | 245° |
| 2026-04-27 15:55 | 48.39184 | 25.06648 | 36125 ft | 420 kts | 245° |
| 2026-04-27 15:56 | 48.36265 | 24.99034 | 36120 ft | 420 kts | 245° |
| 2026-04-27 15:56 | 48.33378 | 24.91526 | 36113 ft | 420 kts | 245° |
| 2026-04-27 15:57 | 48.30456 | 24.83950 | 36109 ft | 421 kts | 245° |
| 2026-04-27 15:57 | 48.27536 | 24.76401 | 36099 ft | 421 kts | 245° |
| 2026-04-27 15:58 | 48.24605 | 24.68847 | 36094 ft | 421 kts | 245° |
| 2026-04-27 15:58 | 48.21670 | 24.61302 | 36092 ft | 421 kts | 245° |
| 2026-04-27 15:59 | 48.18767 | 24.53861 | 36097 ft | 421 kts | 245° |
| 2026-04-27 15:59 | 48.15840 | 24.46376 | 36108 ft | 420 kts | 245° |
| 2026-04-27 16:00 | 48.12897 | 24.38875 | 36110 ft | 420 kts | 245° |
| 2026-04-27 16:00 | 48.10133 | 24.31846 | 36112 ft | 421 kts | 244° |
| 2026-04-27 16:01 | 48.07202 | 24.24416 | 36123 ft | 422 kts | 244° |
| 2026-04-27 16:01 | 48.04242 | 24.16931 | 36140 ft | 422 kts | 244° |
| 2026-04-27 16:02 | 48.01311 | 24.09542 | 36156 ft | 422 kts | 244° |
| 2026-04-27 16:02 | 47.98362 | 24.02133 | 36163 ft | 422 kts | 244° |
| 2026-04-27 16:03 | 47.95428 | 23.94682 | 36179 ft | 420 kts | 246° |
| 2026-04-27 16:03 | 47.92833 | 23.87113 | 36183 ft | 418 kts | 248° |
| 2026-04-27 16:04 | 47.90273 | 23.79543 | 36188 ft | 418 kts | 248° |
| 2026-04-27 16:04 | 47.87691 | 23.71928 | 36175 ft | 418 kts | 248° |
| 2026-04-27 16:05 | 47.85107 | 23.64331 | 36167 ft | 419 kts | 248° |
| 2026-04-27 16:05 | 47.82478 | 23.56632 | 36174 ft | 419 kts | 248° |
| 2026-04-27 16:06 | 47.79894 | 23.49083 | 36176 ft | 420 kts | 248° |
| 2026-04-27 16:06 | 47.77260 | 23.41417 | 36179 ft | 420 kts | 248° |
| 2026-04-27 16:07 | 47.74609 | 23.33719 | 36184 ft | 420 kts | 247° |
| 2026-04-27 16:07 | 47.71951 | 23.26027 | 36179 ft | 421 kts | 247° |
| 2026-04-27 16:08 | 47.69306 | 23.18392 | 36175 ft | 420 kts | 247° |
| 2026-04-27 16:08 | 47.66661 | 23.10782 | 36180 ft | 421 kts | 247° |
| 2026-04-27 16:09 | 47.64017 | 23.03194 | 36181 ft | 421 kts | 248° |
| 2026-04-27 16:09 | 47.60000 | 22.91710 | 36182 ft | 421 kts | 247° |
| 2026-04-27 16:10 | 47.54629 | 22.76432 | 36178 ft | 421 kts | 247° |
| 2026-04-27 16:11 | 47.50559 | 22.64919 | 36178 ft | 422 kts | 248° |
| 2026-04-27 16:12 | 47.46493 | 22.53459 | 36170 ft | 422 kts | 248° |
| 2026-04-27 16:13 | 47.42408 | 22.42001 | 36166 ft | 423 kts | 248° |
| 2026-04-27 16:13 | 47.38310 | 22.30558 | 36171 ft | 424 kts | 247° |
| 2026-04-27 16:14 | 47.32824 | 22.15316 | 36172 ft | 424 kts | 247° |
| 2026-04-27 16:15 | 47.27309 | 22.00080 | 36180 ft | 424 kts | 247° |
| 2026-04-27 16:16 | 47.21802 | 21.84958 | 36181 ft | 426 kts | 247° |
| 2026-04-27 16:17 | 47.16014 | 21.69877 | 36176 ft | 430 kts | 242° |
| 2026-04-27 16:18 | 47.09244 | 21.55493 | 36169 ft | 431 kts | 241° |
| 2026-04-27 16:19 | 47.05859 | 21.48338 | 36166 ft | 431 kts | 241° |
| 2026-04-27 16:20 | 46.99080 | 21.34060 | 36156 ft | 433 kts | 240° |
| 2026-04-27 16:21 | 46.93952 | 21.23309 | 36154 ft | 434 kts | 240° |
| 2026-04-27 16:22 | 46.87033 | 21.08868 | 36155 ft | 441 kts | 240° |
| 2026-04-27 16:22 | 46.81697 | 20.97773 | 36140 ft | 453 kts | 240° |
| 2026-04-27 16:23 | 46.76255 | 20.86517 | 36137 ft | 458 kts | 240° |
| 2026-04-27 16:24 | 46.72577 | 20.78941 | 36145 ft | 458 kts | 240° |
| 2026-04-27 16:25 | 46.65223 | 20.63840 | 36145 ft | 460 kts | 240° |
| 2026-04-27 16:26 | 46.57889 | 20.48859 | 36147 ft | 459 kts | 240° |
| 2026-04-27 16:27 | 46.50489 | 20.33825 | 36140 ft | 460 kts | 239° |
| 2026-04-27 16:28 | 46.41186 | 20.15034 | 36137 ft | 461 kts | 239° |
| 2026-04-27 16:29 | 46.31849 | 19.96310 | 36141 ft | 463 kts | 239° |
| 2026-04-27 16:30 | 46.24339 | 19.81337 | 36135 ft | 463 kts | 239° |
| 2026-04-27 16:31 | 46.15289 | 19.62470 | 36133 ft | 461 kts | 243° |
| 2026-04-27 16:32 | 46.10166 | 19.50822 | 36142 ft | 460 kts | 243° |
| 2026-04-27 16:33 | 46.05037 | 19.39214 | 36145 ft | 461 kts | 243° |
| 2026-04-27 16:33 | 46.01608 | 19.31486 | 36140 ft | 462 kts | 242° |
| 2026-04-27 16:34 | 45.98172 | 19.23770 | 36137 ft | 462 kts | 242° |
| 2026-04-27 16:34 | 45.94733 | 19.16062 | 36123 ft | 462 kts | 242° |
| 2026-04-27 16:35 | 45.91307 | 19.08404 | 36125 ft | 462 kts | 242° |
| 2026-04-27 16:36 | 45.86145 | 18.96912 | 36120 ft | 462 kts | 242° |
| 2026-04-27 16:36 | 45.82687 | 18.89239 | 36119 ft | 462 kts | 242° |
| 2026-04-27 16:37 | 45.79242 | 18.81611 | 36120 ft | 462 kts | 242° |
| 2026-04-27 16:37 | 45.75821 | 18.74059 | 36120 ft | 462 kts | 242° |
| 2026-04-27 16:38 | 45.72345 | 18.66406 | 36119 ft | 462 kts | 242° |
| 2026-04-27 16:38 | 45.68854 | 18.58743 | 36124 ft | 462 kts | 242° |
| 2026-04-27 16:39 | 45.65387 | 18.51152 | 36113 ft | 462 kts | 242° |
| 2026-04-27 16:39 | 45.61955 | 18.43656 | 36117 ft | 462 kts | 242° |
| 2026-04-27 16:40 | 45.58492 | 18.36116 | 36117 ft | 462 kts | 242° |
| 2026-04-27 16:40 | 45.55084 | 18.28712 | 36116 ft | 462 kts | 241° |
| 2026-04-27 16:41 | 45.51586 | 18.21137 | 36116 ft | 462 kts | 241° |
| 2026-04-27 16:41 | 45.48097 | 18.13595 | 36114 ft | 462 kts | 241° |
| 2026-04-27 16:42 | 45.44583 | 18.06025 | 36111 ft | 462 kts | 241° |
| 2026-04-27 16:42 | 45.41075 | 17.98484 | 36107 ft | 462 kts | 241° |
| 2026-04-27 16:43 | 45.37568 | 17.90967 | 36106 ft | 462 kts | 241° |
| 2026-04-27 16:43 | 45.34077 | 17.83504 | 36109 ft | 462 kts | 241° |
| 2026-04-27 16:44 | 45.30567 | 17.76023 | 36106 ft | 461 kts | 240° |
| 2026-04-27 16:44 | 45.27032 | 17.68504 | 36105 ft | 461 kts | 240° |
| 2026-04-27 16:45 | 45.23519 | 17.61058 | 36104 ft | 461 kts | 240° |
| 2026-04-27 16:45 | 45.20018 | 17.53653 | 36105 ft | 462 kts | 240° |
| 2026-04-27 16:46 | 45.16480 | 17.46192 | 36105 ft | 462 kts | 240° |
| 2026-04-27 16:46 | 45.12967 | 17.38817 | 36106 ft | 462 kts | 240° |
| 2026-04-27 16:47 | 45.09302 | 17.31477 | 36105 ft | 463 kts | 238° |
| 2026-04-27 16:47 | 45.05646 | 17.24254 | 36109 ft | 463 kts | 238° |
| 2026-04-27 16:48 | 45.01967 | 17.16983 | 36111 ft | 463 kts | 238° |
| 2026-04-27 16:48 | 44.98284 | 17.09709 | 36113 ft | 463 kts | 238° |
| 2026-04-27 16:49 | 44.92838 | 16.98979 | 36115 ft | 463 kts | 238° |
| 2026-04-27 16:49 | 44.89250 | 16.91929 | 36106 ft | 463 kts | 238° |
| 2026-04-27 16:50 | 44.85107 | 16.83818 | 36109 ft | 464 kts | 238° |
| 2026-04-27 16:50 | 44.81424 | 16.76623 | 36096 ft | 464 kts | 238° |
| 2026-04-27 16:51 | 44.77779 | 16.69518 | 36102 ft | 464 kts | 238° |
| 2026-04-27 16:51 | 44.74078 | 16.62322 | 36098 ft | 464 kts | 238° |
| 2026-04-27 16:52 | 44.70367 | 16.55124 | 36105 ft | 464 kts | 238° |
| 2026-04-27 16:52 | 44.66707 | 16.48045 | 36100 ft | 464 kts | 238° |
| 2026-04-27 16:53 | 44.63618 | 16.42082 | 36102 ft | 464 kts | 238° |
| 2026-04-27 16:53 | 44.59364 | 16.33891 | 36106 ft | 465 kts | 237° |
| 2026-04-27 16:54 | 44.55697 | 16.26852 | 36110 ft | 465 kts | 237° |
| 2026-04-27 16:55 | 44.48855 | 16.13757 | 36115 ft | 465 kts | 237° |
| 2026-04-27 16:55 | 44.45396 | 16.07161 | 36111 ft | 466 kts | 237° |
| 2026-04-27 16:56 | 44.41660 | 16.00051 | 36104 ft | 466 kts | 237° |
| 2026-04-27 16:56 | 44.37967 | 15.93045 | 36103 ft | 466 kts | 237° |
| 2026-04-27 16:57 | 44.34229 | 15.85969 | 36101 ft | 465 kts | 237° |
| 2026-04-27 16:57 | 44.30499 | 15.78925 | 36100 ft | 465 kts | 237° |
| 2026-04-27 16:58 | 44.26736 | 15.71835 | 36097 ft | 465 kts | 237° |
| 2026-04-27 16:58 | 44.22911 | 15.64647 | 36085 ft | 465 kts | 237° |
| 2026-04-27 16:59 | 44.19095 | 15.57492 | 36070 ft | 465 kts | 237° |
| 2026-04-27 16:59 | 44.15267 | 15.50333 | 36058 ft | 465 kts | 237° |
| 2026-04-27 17:00 | 44.09575 | 15.39719 | 36050 ft | 465 kts | 237° |
| 2026-04-27 17:01 | 44.05833 | 15.32765 | 36049 ft | 465 kts | 236° |
| 2026-04-27 17:01 | 44.02014 | 15.25683 | 36047 ft | 466 kts | 236° |
| 2026-04-27 17:02 | 43.98169 | 15.18572 | 36043 ft | 466 kts | 236° |
| 2026-04-27 17:02 | 43.94290 | 15.11413 | 36036 ft | 466 kts | 236° |
| 2026-04-27 17:03 | 43.90435 | 15.04318 | 36033 ft | 465 kts | 236° |
| 2026-04-27 17:03 | 43.86651 | 14.97371 | 36032 ft | 465 kts | 236° |
| 2026-04-27 17:04 | 43.82835 | 14.90379 | 36030 ft | 465 kts | 236° |
| 2026-04-27 17:04 | 43.78985 | 14.83345 | 36037 ft | 465 kts | 236° |
| 2026-04-27 17:05 | 43.75108 | 14.76276 | 36034 ft | 465 kts | 236° |
| 2026-04-27 17:05 | 43.71284 | 14.69323 | 36033 ft | 465 kts | 236° |
| 2026-04-27 17:06 | 43.67497 | 14.62451 | 36031 ft | 465 kts | 236° |
| 2026-04-27 17:06 | 43.63694 | 14.55571 | 36034 ft | 465 kts | 236° |
| 2026-04-27 17:07 | 43.59874 | 14.48675 | 36033 ft | 465 kts | 236° |
| 2026-04-27 17:07 | 43.56010 | 14.41726 | 36035 ft | 465 kts | 235° |
| 2026-04-27 17:08 | 43.51989 | 14.34836 | 36035 ft | 465 kts | 233° |
| 2026-04-27 17:08 | 43.47931 | 14.27991 | 36033 ft | 466 kts | 233° |
| 2026-04-27 17:09 | 43.43880 | 14.21154 | 36033 ft | 465 kts | 233° |
| 2026-04-27 17:09 | 43.39848 | 14.14352 | 36036 ft | 465 kts | 233° |
| 2026-04-27 17:10 | 43.35767 | 14.07479 | 36038 ft | 465 kts | 233° |
| 2026-04-27 17:10 | 43.31703 | 14.00648 | 36037 ft | 465 kts | 233° |
| 2026-04-27 17:11 | 43.27645 | 13.93845 | 36035 ft | 465 kts | 233° |
| 2026-04-27 17:11 | 43.21473 | 13.83525 | 36036 ft | 471 kts | 233° |
| 2026-04-27 17:12 | 43.15274 | 13.73198 | 36042 ft | 471 kts | 233° |
| 2026-04-27 17:13 | 43.11113 | 13.66288 | 36049 ft | 471 kts | 233° |
| 2026-04-27 17:13 | 43.06953 | 13.59395 | 36058 ft | 471 kts | 233° |
| 2026-04-27 17:14 | 43.02821 | 13.52564 | 36061 ft | 471 kts | 233° |
| 2026-04-27 17:14 | 42.98661 | 13.45702 | 36068 ft | 471 kts | 233° |
| 2026-04-27 17:15 | 42.94891 | 13.38492 | 36087 ft | 469 kts | 239° |
| 2026-04-27 17:15 | 42.90903 | 13.31521 | 36105 ft | 472 kts | 231° |
| 2026-04-27 17:16 | 42.86650 | 13.24805 | 36116 ft | 472 kts | 231° |
| 2026-04-27 17:16 | 42.82468 | 13.18166 | 36116 ft | 471 kts | 231° |
| 2026-04-27 17:17 | 42.78276 | 13.11467 | 36113 ft | 471 kts | 231° |
| 2026-04-27 17:17 | 42.74065 | 13.04731 | 36111 ft | 471 kts | 232° |
| 2026-04-27 17:18 | 42.67767 | 12.94681 | 36110 ft | 471 kts | 232° |
| 2026-04-27 17:18 | 42.63552 | 12.87974 | 36118 ft | 471 kts | 232° |
| 2026-04-27 17:19 | 42.59323 | 12.81260 | 36112 ft | 471 kts | 232° |
| 2026-04-27 17:19 | 42.55137 | 12.74633 | 36101 ft | 470 kts | 232° |
| 2026-04-27 17:20 | 42.51000 | 12.68096 | 36095 ft | 470 kts | 232° |
| 2026-04-27 17:20 | 42.46996 | 12.61501 | 36089 ft | 469 kts | 235° |
| 2026-04-27 17:21 | 42.43396 | 12.54433 | 36085 ft | 468 kts | 239° |
| 2026-04-27 17:21 | 42.39828 | 12.47165 | 36081 ft | 468 kts | 239° |
| 2026-04-27 17:22 | 42.36251 | 12.39899 | 36085 ft | 468 kts | 239° |
| 2026-04-27 17:22 | 42.32665 | 12.32641 | 36079 ft | 468 kts | 238° |
| 2026-04-27 17:23 | 42.29055 | 12.25357 | 36079 ft | 468 kts | 238° |
| 2026-04-27 17:23 | 42.25512 | 12.18225 | 36078 ft | 468 kts | 238° |
| 2026-04-27 17:24 | 42.21928 | 12.11028 | 36076 ft | 467 kts | 238° |
| 2026-04-27 17:24 | 42.18333 | 12.03829 | 36076 ft | 467 kts | 238° |
| 2026-04-27 17:25 | 42.14785 | 11.96738 | 36070 ft | 466 kts | 238° |
| 2026-04-27 17:25 | 42.11400 | 11.89987 | 36070 ft | 467 kts | 238° |
| 2026-04-27 17:26 | 42.07748 | 11.82722 | 36067 ft | 467 kts | 238° |
| 2026-04-27 17:26 | 42.04292 | 11.75860 | 36066 ft | 467 kts | 238° |
| 2026-04-27 17:27 | 42.00814 | 11.68974 | 36066 ft | 466 kts | 238° |
| 2026-04-27 17:27 | 41.97225 | 11.61885 | 36069 ft | 466 kts | 238° |
| 2026-04-27 17:28 | 41.93635 | 11.54810 | 36072 ft | 466 kts | 238° |
| 2026-04-27 17:29 | 41.88232 | 11.44194 | 36067 ft | 466 kts | 238° |
| 2026-04-27 17:29 | 41.86455 | 11.40708 | 35951 ft | 463 kts | 238° |
| 2026-04-27 17:29 | 41.84736 | 11.37346 | 35730 ft | 446 kts | 238° |
| 2026-04-27 17:29 | 41.83042 | 11.34034 | 35464 ft | 447 kts | 237° |
| 2026-04-27 17:30 | 41.81347 | 11.30718 | 35045 ft | 451 kts | 237° |
| 2026-04-27 17:30 | 41.77873 | 11.23935 | 33800 ft | 451 kts | 237° |
| 2026-04-27 17:30 | 41.76137 | 11.20553 | 33127 ft | 451 kts | 237° |
| 2026-04-27 17:31 | 41.74364 | 11.17104 | 32421 ft | 453 kts | 237° |
| 2026-04-27 17:31 | 41.72648 | 11.13770 | 31728 ft | 453 kts | 237° |
| 2026-04-27 17:31 | 41.70906 | 11.10389 | 31006 ft | 453 kts | 237° |
| 2026-04-27 17:31 | 41.69125 | 11.06938 | 30251 ft | 452 kts | 237° |
| 2026-04-27 17:32 | 41.67357 | 11.03516 | 29734 ft | 445 kts | 236° |
| 2026-04-27 17:32 | 41.63909 | 10.96856 | 28764 ft | 431 kts | 237° |
| 2026-04-27 17:32 | 41.62239 | 10.93634 | 28291 ft | 424 kts | 237° |
| 2026-04-27 17:33 | 41.60565 | 10.90406 | 27812 ft | 418 kts | 237° |
| 2026-04-27 17:33 | 41.58923 | 10.87244 | 27344 ft | 412 kts | 237° |
| 2026-04-27 17:33 | 41.57325 | 10.84168 | 26884 ft | 407 kts | 236° |
| 2026-04-27 17:33 | 41.55731 | 10.81104 | 26427 ft | 401 kts | 237° |
| 2026-04-27 17:34 | 41.54160 | 10.78084 | 25974 ft | 396 kts | 236° |
| 2026-04-27 17:34 | 41.52599 | 10.75090 | 25525 ft | 391 kts | 236° |
| 2026-04-27 17:34 | 41.51067 | 10.72152 | 25092 ft | 387 kts | 236° |
| 2026-04-27 17:34 | 41.49540 | 10.69229 | 24650 ft | 382 kts | 236° |
| 2026-04-27 17:35 | 41.48053 | 10.66383 | 24211 ft | 379 kts | 236° |
| 2026-04-27 17:35 | 41.46571 | 10.63550 | 23774 ft | 375 kts | 236° |
| 2026-04-27 17:35 | 41.45109 | 10.60758 | 23344 ft | 372 kts | 236° |
| 2026-04-27 17:35 | 41.43660 | 10.57994 | 22918 ft | 369 kts | 236° |
| 2026-04-27 17:36 | 41.42222 | 10.55252 | 22486 ft | 366 kts | 236° |
| 2026-04-27 17:36 | 41.40788 | 10.52522 | 22050 ft | 364 kts | 236° |
| 2026-04-27 17:36 | 41.39354 | 10.49792 | 21617 ft | 361 kts | 236° |
| 2026-04-27 17:36 | 41.37943 | 10.47111 | 21189 ft | 359 kts | 236° |
| 2026-04-27 17:37 | 41.36518 | 10.44404 | 20743 ft | 357 kts | 236° |
| 2026-04-27 17:37 | 41.35114 | 10.41739 | 20304 ft | 356 kts | 236° |
| 2026-04-27 17:37 | 41.33707 | 10.39074 | 19854 ft | 354 kts | 236° |
| 2026-04-27 17:37 | 41.32296 | 10.36402 | 19409 ft | 353 kts | 236° |
| 2026-04-27 17:38 | 41.30894 | 10.33750 | 18963 ft | 352 kts | 235° |
| 2026-04-27 17:38 | 41.29491 | 10.31095 | 18507 ft | 351 kts | 235° |
| 2026-04-27 17:38 | 41.28093 | 10.28455 | 18046 ft | 350 kts | 235° |
| 2026-04-27 17:38 | 41.26711 | 10.25848 | 17604 ft | 349 kts | 235° |
| 2026-04-27 17:39 | 41.25310 | 10.23210 | 17177 ft | 348 kts | 235° |
| 2026-04-27 17:39 | 41.23942 | 10.20635 | 16758 ft | 346 kts | 235° |
| 2026-04-27 17:39 | 41.22545 | 10.18006 | 16334 ft | 344 kts | 235° |
| 2026-04-27 17:39 | 41.21202 | 10.15428 | 15908 ft | 343 kts | 237° |
| 2026-04-27 17:40 | 41.19947 | 10.12782 | 15470 ft | 342 kts | 239° |
| 2026-04-27 17:40 | 41.18715 | 10.10137 | 15030 ft | 341 kts | 239° |
| 2026-04-27 17:40 | 41.17461 | 10.07447 | 14581 ft | 341 kts | 239° |
| 2026-04-27 17:40 | 41.16221 | 10.04792 | 14134 ft | 340 kts | 239° |
| 2026-04-27 17:41 | 41.14984 | 10.02144 | 13681 ft | 339 kts | 239° |
| 2026-04-27 17:41 | 41.13750 | 9.99508 | 13233 ft | 338 kts | 239° |
| 2026-04-27 17:41 | 41.12525 | 9.96893 | 12780 ft | 337 kts | 238° |
| 2026-04-27 17:41 | 41.11291 | 9.94267 | 12325 ft | 336 kts | 238° |
| 2026-04-27 17:42 | 41.10092 | 9.91714 | 12079 ft | 327 kts | 238° |
| 2026-04-27 17:42 | 41.08918 | 9.89218 | 11947 ft | 313 kts | 238° |
| 2026-04-27 17:42 | 41.07785 | 9.86813 | 11825 ft | 301 kts | 239° |
| 2026-04-27 17:42 | 41.06706 | 9.84522 | 11699 ft | 290 kts | 239° |
| 2026-04-27 17:43 | 41.05665 | 9.82315 | 11574 ft | 279 kts | 239° |
| 2026-04-27 17:43 | 41.04671 | 9.80207 | 11468 ft | 267 kts | 239° |
| 2026-04-27 17:43 | 41.03709 | 9.78168 | 11365 ft | 257 kts | 239° |
| 2026-04-27 17:43 | 41.02733 | 9.76222 | 11241 ft | 255 kts | 230° |
| 2026-04-27 17:44 | 41.01265 | 9.74951 | 10851 ft | 256 kts | 194° |
| 2026-04-27 17:44 | 40.99504 | 9.75004 | 10488 ft | 256 kts | 163° |
| 2026-04-27 17:44 | 40.97985 | 9.76138 | 10137 ft | 255 kts | 136° |
| 2026-04-27 17:44 | 40.97016 | 9.78054 | 9801 ft | 253 kts | 108° |
| 2026-04-27 17:45 | 40.96816 | 9.80286 | 9493 ft | 250 kts | 82° |
| 2026-04-27 17:45 | 40.97407 | 9.82424 | 9188 ft | 247 kts | 57° |
| 2026-04-27 17:45 | 40.98371 | 9.84278 | 8893 ft | 245 kts | 54° |
| 2026-04-27 17:45 | 40.99342 | 9.86102 | 8565 ft | 245 kts | 55° |
| 2026-04-27 17:46 | 41.00296 | 9.87941 | 8237 ft | 245 kts | 55° |
| 2026-04-27 17:46 | 41.01245 | 9.89802 | 7934 ft | 244 kts | 54° |
| 2026-04-27 17:46 | 41.02441 | 9.91312 | 7580 ft | 242 kts | 26° |
| 2026-04-27 17:46 | 41.04077 | 9.91868 | 7256 ft | 238 kts | 357° |
| 2026-04-27 17:47 | 41.05654 | 9.91380 | 6937 ft | 235 kts | 331° |
| 2026-04-27 17:47 | 41.06543 | 9.90547 | 6709 ft | 234 kts | 313° |
| 2026-04-27 17:47 | 41.07549 | 9.88081 | 6267 ft | 232 kts | 279° |
| 2026-04-27 17:47 | 41.07501 | 9.85997 | 5953 ft | 232 kts | 254° |
| 2026-04-27 17:48 | 41.06792 | 9.84088 | 5630 ft | 232 kts | 236° |
| 2026-04-27 17:48 | 41.05896 | 9.82356 | 5318 ft | 231 kts | 235° |
| 2026-04-27 17:48 | 41.04984 | 9.80609 | 5015 ft | 230 kts | 235° |
| 2026-04-27 17:48 | 41.04086 | 9.78859 | 4709 ft | 230 kts | 236° |
| 2026-04-27 17:49 | 41.03204 | 9.77121 | 4398 ft | 230 kts | 235° |
| 2026-04-27 17:49 | 41.02293 | 9.75390 | 4098 ft | 230 kts | 233° |
| 2026-04-27 17:49 | 41.01370 | 9.73681 | 3793 ft | 229 kts | 233° |
| 2026-04-27 17:49 | 41.00456 | 9.71985 | 3535 ft | 227 kts | 233° |
| 2026-04-27 17:50 | 40.99540 | 9.70281 | 3235 ft | 226 kts | 233° |
| 2026-04-27 17:50 | 40.97810 | 9.66987 | 2976 ft | 213 kts | 233° |
| 2026-04-27 17:50 | 40.96975 | 9.65383 | 2982 ft | 213 kts | 234° |
| 2026-04-27 17:51 | 40.96147 | 9.63792 | 2985 ft | 213 kts | 233° |
| 2026-04-27 17:51 | 40.95156 | 9.62355 | 2972 ft | 211 kts | 209° |
| 2026-04-27 17:51 | 40.93776 | 9.61870 | 2970 ft | 207 kts | 174° |
| 2026-04-27 17:51 | 40.92449 | 9.62514 | 2764 ft | 206 kts | 140° |
| 2026-04-27 17:52 | 40.91674 | 9.64053 | 2524 ft | 206 kts | 105° |
| 2026-04-27 17:52 | 40.91669 | 9.65895 | 2346 ft | 202 kts | 72° |
| 2026-04-27 17:52 | 40.92466 | 9.67311 | 2265 ft | 190 kts | 39° |
| 2026-04-27 17:52 | 40.93673 | 9.67835 | 2055 ft | 183 kts | 358° |
| 2026-04-27 17:53 | 40.94768 | 9.67202 | 1963 ft | 166 kts | 312° |
| 2026-04-27 17:53 | 40.95161 | 9.65913 | 1944 ft | 158 kts | 264° |
| 2026-04-27 17:53 | 40.94902 | 9.64549 | 1992 ft | 156 kts | 246° |
| 2026-04-27 17:53 | 40.94535 | 9.63244 | 1929 ft | 156 kts | 250° |
| 2026-04-27 17:54 | 40.94285 | 9.61941 | 1698 ft | 154 kts | 253° |
| 2026-04-27 17:54 | 40.94001 | 9.60599 | 1338 ft | 157 kts | 250° |
| 2026-04-27 17:54 | 40.93665 | 9.59469 | 1003 ft | 157 kts | 243° |
| 2026-04-27 17:54 | 40.93155 | 9.58240 | 854 ft | 154 kts | 238° |
| 2026-04-27 17:55 | 40.92628 | 9.57069 | 747 ft | 154 kts | 235° |
| 2026-04-27 17:55 | 40.92041 | 9.55961 | 509 ft | 153 kts | 234° |
| 2026-04-27 17:55 | 40.91481 | 9.54850 | 320 ft | 151 kts | 234° |
| 2026-04-27 17:55 | 40.90904 | 9.53746 | 203 ft | 150 kts | 232° |
| 2026-04-27 17:56 | 40.90341 | 9.52684 | 52 ft | 144 kts | 233° |
| 2026-04-27 17:56 | 40.89933 | 9.51898 | 50 ft | 69 kts | 240° |
| 2026-04-27 17:56 | 40.89748 | 9.51533 | 50 ft | 44 kts | 234° |
| 2026-04-27 17:56 | 40.89632 | 9.51284 | 50 ft | 20 kts | 257° |
| 2026-04-27 17:57 | 40.89669 | 9.51126 | 50 ft | 15 kts | 330° |
| 2026-04-27 17:57 | 40.89748 | 9.51151 | 50 ft | 7 kts | 47° |
| 2026-04-27 17:57 | 40.89755 | 9.51160 | 50 ft | 0 kts | 51° |
| 2026-04-27 17:57 | 40.89761 | 9.51170 | 50 ft | 1 kts | 54° |